createdAt,value
2019-04-07T00:00:47.659Z,8.55
2019-04-07T00:01:47.787Z,8.47
2019-04-07T00:02:47.571Z,8.43
2019-04-07T00:03:47.300Z,8.43
2019-04-07T00:04:47.673Z,8.45
2019-04-07T00:05:47.280Z,8.46
2019-04-07T00:06:47.687Z,8.45
2019-04-07T00:07:47.287Z,8.42
2019-04-07T00:08:47.525Z,8.37
2019-04-07T00:09:47.226Z,8.34
2019-04-07T00:10:47.212Z,8.40
2019-04-07T00:11:47.203Z,8.37
2019-04-07T00:12:47.652Z,8.39
2019-04-07T00:13:47.175Z,8.42
2019-04-07T00:14:47.164Z,8.39
2019-04-07T00:15:47.151Z,8.34
2019-04-07T00:16:47.139Z,8.45
2019-04-07T00:17:47.700Z,8.34
2019-04-07T00:18:47.113Z,8.32
2019-04-07T00:19:47.100Z,8.34
2019-04-07T00:20:47.362Z,8.39
2019-04-07T00:21:47.076Z,8.36
2019-04-07T00:22:47.092Z,8.31
2019-04-07T00:23:47.049Z,8.37
2019-04-07T00:24:47.039Z,8.32
2019-04-07T00:25:47.028Z,8.39
2019-04-07T00:26:47.486Z,8.25
2019-04-07T00:27:47.002Z,8.43
2019-04-07T00:28:46.989Z,8.40
2019-04-07T00:29:46.997Z,8.37
2019-04-07T00:30:46.965Z,8.29
2019-04-07T00:31:46.951Z,8.40
2019-04-07T00:32:46.940Z,8.29
2019-04-07T00:33:47.302Z,8.36
2019-04-07T00:34:46.914Z,8.39
2019-04-07T00:35:46.915Z,8.39
2019-04-07T00:36:46.892Z,8.49
2019-04-07T00:37:46.878Z,8.40
2019-04-07T00:38:47.070Z,8.36
2019-04-07T00:39:46.901Z,8.37
2019-04-07T00:40:46.839Z,8.28
2019-04-07T00:41:47.488Z,8.29
2019-04-07T00:42:46.817Z,8.24
2019-04-07T00:43:47.173Z,8.28
2019-04-07T00:44:46.789Z,8.28
2019-04-07T00:45:47.021Z,8.22
2019-04-07T00:46:46.765Z,8.25
2019-04-07T00:47:46.752Z,8.14
2019-04-07T00:48:47.461Z,8.14
2019-04-07T00:49:46.728Z,8.02
2019-04-07T00:50:46.981Z,8.09
2019-04-07T00:51:46.714Z,8.10
2019-04-07T00:52:46.690Z,8.20
2019-04-07T00:53:46.679Z,8.03
2019-04-07T00:54:46.983Z,8.10
2019-04-07T00:55:46.653Z,8.10
2019-04-07T00:56:46.639Z,8.06
2019-04-07T00:57:47.115Z,7.95
2019-04-07T00:58:47.304Z,7.94
2019-04-07T00:59:47.300Z,8.00
2019-04-07T01:00:46.589Z,7.94
2019-04-07T01:01:47.181Z,7.96
2019-04-07T01:02:46.627Z,7.79
2019-04-07T01:03:46.550Z,7.82
2019-04-07T01:04:47.188Z,7.85
2019-04-07T01:05:46.769Z,7.81
2019-04-07T01:06:47.201Z,7.76
2019-04-07T01:07:46.503Z,7.81
2019-04-07T01:08:46.487Z,7.71
2019-04-07T01:09:46.476Z,7.71
2019-04-07T01:10:47.007Z,7.74
2019-04-07T01:11:46.449Z,7.74
2019-04-07T01:12:46.440Z,7.66
2019-04-07T01:13:46.440Z,7.73
2019-04-07T01:14:46.701Z,7.71
2019-04-07T01:15:46.398Z,7.76
2019-04-07T01:16:47.142Z,7.76
2019-04-07T01:17:46.565Z,7.74
2019-04-07T01:18:46.858Z,7.76
2019-04-07T01:19:46.349Z,7.82
2019-04-07T01:20:46.851Z,7.71
2019-04-07T01:21:46.886Z,7.88
2019-04-07T01:22:46.312Z,7.91
2019-04-07T01:23:46.869Z,7.96
2019-04-07T01:24:46.285Z,7.94
2019-04-07T01:25:46.645Z,7.92
2019-04-07T01:26:46.265Z,7.99
2019-04-07T01:27:46.643Z,7.96
2019-04-07T01:28:46.237Z,7.95
2019-04-07T01:29:46.374Z,7.89
2019-04-07T01:30:46.770Z,8.07
2019-04-07T01:31:46.200Z,8.06
2019-04-07T01:32:46.731Z,8.04
2019-04-07T01:33:46.850Z,8.02
2019-04-07T01:34:46.867Z,8.09
2019-04-07T01:35:48.697Z,8.12
2019-04-07T01:36:46.137Z,8.02
2019-04-07T01:37:46.124Z,8.06
2019-04-07T01:38:46.124Z,8.13
2019-04-07T01:39:46.098Z,8.24
2019-04-07T01:40:46.645Z,8.42
2019-04-07T01:41:46.229Z,8.46
2019-04-07T01:42:46.059Z,8.55
2019-04-07T01:43:46.049Z,8.61
2019-04-07T01:44:46.145Z,8.54
2019-04-07T01:45:46.563Z,8.47
2019-04-07T01:46:46.012Z,8.46
2019-04-07T01:47:45.997Z,8.45
2019-04-07T01:48:45.984Z,8.50
2019-04-07T01:49:46.595Z,8.46
2019-04-07T01:50:46.662Z,8.46
2019-04-07T01:51:46.492Z,8.34
2019-04-07T01:52:45.938Z,8.34
2019-04-07T01:53:46.584Z,8.34
2019-04-07T01:54:45.915Z,8.31
2019-04-07T01:55:46.384Z,8.28
2019-04-07T01:56:46.491Z,8.31
2019-04-07T01:57:46.507Z,8.29
2019-04-07T01:58:46.028Z,8.28
2019-04-07T01:59:45.847Z,8.28
2019-04-07T02:00:45.835Z,8.31
2019-04-07T02:01:45.947Z,8.29
2019-04-07T02:02:45.819Z,8.29
2019-04-07T02:03:46.285Z,8.27
2019-04-07T02:04:45.788Z,8.31
2019-04-07T02:05:57.670Z,8.31
2019-04-07T02:06:46.357Z,8.28
2019-04-07T02:07:45.804Z,8.29
2019-04-07T02:08:46.372Z,8.29
2019-04-07T02:09:45.725Z,8.25
2019-04-07T02:10:46.014Z,8.32
2019-04-07T02:11:46.266Z,8.31
2019-04-07T02:12:45.687Z,8.39
2019-04-07T02:13:45.677Z,8.27
2019-04-07T02:14:45.663Z,8.28
2019-04-07T02:15:45.650Z,8.29
2019-04-07T02:16:45.644Z,8.31
2019-04-07T02:17:45.632Z,8.28
2019-04-07T02:18:45.617Z,8.28
2019-04-07T02:19:46.015Z,8.27
2019-04-07T02:20:45.591Z,8.22
2019-04-07T02:21:45.574Z,8.10
2019-04-07T02:22:45.565Z,8.12
2019-04-07T02:23:45.551Z,8.22
2019-04-07T02:24:45.542Z,8.24
2019-04-07T02:25:45.536Z,8.24
2019-04-07T02:26:45.594Z,8.22
2019-04-07T02:27:45.886Z,8.21
2019-04-07T02:28:46.205Z,8.21
2019-04-07T02:29:45.479Z,8.24
2019-04-07T02:30:45.960Z,8.27
2019-04-07T02:31:46.234Z,8.25
2019-04-07T02:32:46.183Z,8.10
2019-04-07T02:33:45.763Z,8.20
2019-04-07T02:34:45.569Z,8.12
2019-04-07T02:35:46.541Z,8.22
2019-04-07T02:36:46.534Z,8.14
2019-04-07T02:37:46.001Z,8.13
2019-04-07T02:38:45.648Z,8.14
2019-04-07T02:39:46.332Z,8.22
2019-04-07T02:40:45.947Z,8.17
2019-04-07T02:41:46.501Z,8.14
2019-04-07T02:42:46.140Z,8.09
2019-04-07T02:43:45.302Z,8.14
2019-04-07T02:44:45.519Z,8.18
2019-04-07T02:45:45.325Z,8.18
2019-04-07T02:46:46.247Z,8.14
2019-04-07T02:47:45.253Z,8.24
2019-04-07T02:48:45.239Z,8.18
2019-04-07T02:49:45.725Z,8.31
2019-04-07T02:50:45.341Z,8.25
2019-04-07T02:51:45.512Z,8.31
2019-04-07T02:52:45.334Z,8.28
2019-04-07T02:53:45.462Z,8.32
2019-04-07T02:54:46.317Z,8.31
2019-04-07T02:55:45.333Z,8.31
2019-04-07T02:56:46.131Z,8.34
2019-04-07T02:57:45.133Z,8.40
2019-04-07T02:58:45.117Z,8.40
2019-04-07T02:59:46.259Z,8.39
2019-04-07T03:00:45.102Z,8.37
2019-04-07T03:01:45.428Z,8.34
2019-04-07T03:02:45.661Z,8.39
2019-04-07T03:03:46.360Z,8.39
2019-04-07T03:04:46.004Z,8.36
2019-04-07T03:05:45.576Z,8.45
2019-04-07T03:06:50.017Z,8.45
2019-04-07T03:07:45.008Z,8.45
2019-04-07T03:08:45.346Z,8.45
2019-04-07T03:09:44.985Z,8.45
2019-04-07T03:10:44.970Z,8.50
2019-04-07T03:11:44.955Z,8.43
2019-04-07T03:12:45.427Z,8.45
2019-04-07T03:13:45.208Z,8.45
2019-04-07T03:14:45.630Z,8.40
2019-04-07T03:15:44.911Z,8.45
2019-04-07T03:16:44.893Z,8.49
2019-04-07T03:17:45.810Z,8.46
2019-04-07T03:18:44.873Z,8.49
2019-04-07T03:19:45.290Z,8.47
2019-04-07T03:20:45.476Z,8.46
2019-04-07T03:21:45.752Z,8.49
2019-04-07T03:22:44.821Z,8.55
2019-04-07T03:23:45.695Z,8.50
2019-04-07T03:24:44.796Z,8.61
2019-04-07T03:25:45.194Z,8.65
2019-04-07T03:26:44.790Z,8.63
2019-04-07T03:27:44.755Z,8.64
2019-04-07T03:28:44.747Z,8.76
2019-04-07T03:29:45.278Z,8.71
2019-04-07T03:30:45.391Z,8.75
2019-04-07T03:31:46.490Z,8.67
2019-04-07T03:32:46.773Z,8.65
2019-04-07T03:33:48.200Z,8.71
2019-04-07T03:34:45.406Z,8.70
2019-04-07T03:35:46.097Z,8.71
2019-04-07T03:37:12.664Z,8.68
2019-04-07T03:37:47.432Z,8.70
2019-04-07T03:38:44.624Z,8.71
2019-04-07T03:39:44.619Z,8.68
2019-04-07T03:40:44.597Z,8.71
2019-04-07T03:41:44.586Z,8.73
2019-04-07T03:42:44.577Z,8.71
2019-04-07T03:43:44.561Z,8.71
2019-04-07T03:44:44.876Z,8.71
2019-04-07T03:45:45.483Z,8.79
2019-04-07T03:46:45.507Z,8.76
2019-04-07T03:47:44.515Z,8.83
2019-04-07T03:48:44.599Z,8.91
2019-04-07T03:49:45.641Z,8.82
2019-04-07T03:50:44.544Z,8.85
2019-04-07T03:51:44.463Z,8.80
2019-04-07T03:52:44.952Z,8.79
2019-04-07T03:53:45.651Z,8.79
2019-04-07T03:54:45.126Z,8.80
2019-04-07T03:55:44.438Z,8.83
2019-04-07T03:56:44.405Z,8.89
2019-04-07T03:57:44.485Z,8.97
2019-04-07T03:58:44.381Z,9.00
2019-04-07T03:59:44.648Z,8.93
2019-04-07T04:00:44.363Z,8.94
2019-04-07T04:01:45.412Z,8.98
2019-04-07T04:02:44.497Z,8.83
2019-04-07T04:03:44.317Z,8.85
2019-04-07T04:04:44.305Z,8.80
2019-04-07T04:05:44.293Z,8.91
2019-04-07T04:06:44.289Z,8.89
2019-04-07T04:07:44.324Z,8.85
2019-04-07T04:08:44.277Z,8.91
2019-04-07T04:09:45.465Z,8.83
2019-04-07T04:10:44.907Z,8.78
2019-04-07T04:11:45.167Z,8.86
2019-04-07T04:12:44.219Z,8.88
2019-04-07T04:13:44.336Z,8.91
2019-04-07T04:14:45.155Z,8.93
2019-04-07T04:15:44.686Z,8.76
2019-04-07T04:16:44.494Z,8.75
2019-04-07T04:17:44.149Z,8.76
2019-04-07T04:18:44.725Z,8.70
2019-04-07T04:19:44.142Z,8.71
2019-04-07T04:20:44.412Z,8.75
2019-04-07T04:21:44.472Z,8.71
2019-04-07T04:22:44.366Z,8.70
2019-04-07T04:23:44.698Z,8.70
2019-04-07T04:24:44.063Z,8.67
2019-04-07T04:25:45.430Z,8.76
2019-04-07T04:26:44.192Z,8.71
2019-04-07T04:27:44.264Z,8.68
2019-04-07T04:28:44.328Z,8.83
2019-04-07T04:29:44.906Z,8.80
2019-04-07T04:30:44.190Z,8.80
2019-04-07T04:31:43.984Z,8.79
2019-04-07T04:32:43.968Z,8.83
2019-04-07T04:33:44.331Z,8.70
2019-04-07T04:34:43.941Z,8.83
2019-04-07T04:35:44.190Z,8.70
2019-04-07T04:36:44.679Z,8.71
2019-04-07T04:37:48.824Z,8.70
2019-04-07T04:38:44.119Z,8.70
2019-04-07T04:39:44.595Z,8.65
2019-04-07T04:40:44.103Z,8.64
2019-04-07T04:41:44.672Z,8.60
2019-04-07T04:42:44.362Z,8.54
2019-04-07T04:43:43.833Z,8.57
2019-04-07T04:44:44.371Z,8.52
2019-04-07T04:45:43.995Z,8.55
2019-04-07T04:46:43.798Z,8.55
2019-04-07T04:47:43.790Z,8.54
2019-04-07T04:48:43.779Z,8.52
2019-04-07T04:49:44.772Z,8.64
2019-04-07T04:50:44.064Z,8.60
2019-04-07T04:51:44.406Z,8.52
2019-04-07T04:52:45.431Z,8.58
2019-04-07T04:53:44.256Z,8.55
2019-04-07T04:54:43.720Z,8.52
2019-04-07T04:55:43.943Z,8.47
2019-04-07T04:56:43.677Z,8.54
2019-04-07T04:57:44.424Z,8.47
2019-04-07T04:58:44.357Z,8.49
2019-04-07T04:59:44.290Z,8.47
2019-04-07T05:00:44.543Z,8.55
2019-04-07T05:01:44.459Z,8.47
2019-04-07T05:02:44.429Z,8.55
2019-04-07T05:03:43.590Z,8.60
2019-04-07T05:04:43.876Z,8.49
2019-04-07T05:05:43.567Z,8.50
2019-04-07T05:06:43.663Z,8.57
2019-04-07T05:07:54.899Z,8.64
2019-04-07T05:08:44.367Z,8.68
2019-04-07T05:09:48.966Z,8.61
2019-04-07T05:10:43.979Z,8.64
2019-04-07T05:11:43.495Z,8.70
2019-04-07T05:12:43.497Z,8.70
2019-04-07T05:13:43.468Z,8.71
2019-04-07T05:14:43.457Z,8.80
2019-04-07T05:15:43.523Z,8.80
2019-04-07T05:16:43.605Z,8.76
2019-04-07T05:17:43.666Z,8.75
2019-04-07T05:18:43.676Z,8.73
2019-04-07T05:19:43.397Z,8.75
2019-04-07T05:20:44.317Z,8.78
2019-04-07T05:21:43.615Z,8.82
2019-04-07T05:22:43.423Z,8.79
2019-04-07T05:23:43.899Z,8.82
2019-04-07T05:24:43.334Z,8.79
2019-04-07T05:25:43.805Z,8.89
2019-04-07T05:26:43.310Z,8.73
2019-04-07T05:27:43.304Z,8.89
2019-04-07T05:28:43.884Z,8.88
2019-04-07T05:29:43.274Z,8.91
2019-04-07T05:30:43.547Z,8.85
2019-04-07T05:31:43.881Z,8.86
2019-04-07T05:32:43.265Z,8.89
2019-04-07T05:33:43.300Z,8.96
2019-04-07T05:34:43.219Z,9.00
2019-04-07T05:35:43.207Z,9.06
2019-04-07T05:36:43.335Z,9.01
2019-04-07T05:37:43.334Z,9.13
2019-04-07T05:38:43.164Z,9.13
2019-04-07T05:39:43.734Z,9.13
2019-04-07T05:40:43.328Z,9.23
2019-04-07T05:41:43.832Z,9.20
2019-04-07T05:42:43.351Z,9.27
2019-04-07T05:43:43.141Z,9.30
2019-04-07T05:44:43.233Z,9.30
2019-04-07T05:45:43.912Z,9.30
2019-04-07T05:46:43.476Z,9.24
2019-04-07T05:47:47.313Z,9.27
2019-04-07T05:48:43.614Z,9.30
2019-04-07T05:49:43.379Z,9.37
2019-04-07T05:50:43.031Z,9.24
2019-04-07T05:51:43.393Z,9.32
2019-04-07T05:52:43.316Z,9.32
2019-04-07T05:53:46.327Z,9.30
2019-04-07T05:54:42.974Z,9.26
2019-04-07T05:55:43.615Z,9.32
2019-04-07T05:56:42.949Z,9.35
2019-04-07T05:57:43.172Z,9.35
2019-04-07T05:58:43.848Z,9.30
2019-04-07T05:59:43.673Z,9.41
2019-04-07T06:00:45.746Z,9.37
2019-04-07T06:01:42.891Z,9.42
2019-04-07T06:02:42.989Z,9.42
2019-04-07T06:03:43.638Z,9.48
2019-04-07T06:04:42.866Z,9.52
2019-04-07T06:05:44.629Z,9.58
2019-04-07T06:06:42.831Z,9.58
2019-04-07T06:07:43.026Z,9.65
2019-04-07T06:08:42.809Z,9.63
2019-04-07T06:09:42.800Z,9.58
2019-04-07T06:10:42.787Z,9.62
2019-04-07T06:11:43.174Z,9.56
2019-04-07T06:12:46.364Z,9.53
2019-04-07T06:13:44.628Z,9.56
2019-04-07T06:14:44.463Z,9.59
2019-04-07T06:15:42.795Z,9.52
2019-04-07T06:16:43.458Z,9.52
2019-04-07T06:17:42.701Z,9.59
2019-04-07T06:18:43.313Z,9.55
2019-04-07T06:19:43.558Z,9.50
2019-04-07T06:20:45.143Z,9.56
2019-04-07T06:21:46.058Z,9.62
2019-04-07T06:22:42.644Z,9.50
2019-04-07T06:23:43.258Z,9.50
2019-04-07T06:24:42.621Z,9.58
2019-04-07T06:25:44.007Z,9.58
2019-04-07T06:26:47.650Z,9.68
2019-04-07T06:27:45.064Z,9.65
2019-04-07T06:28:42.575Z,9.67
2019-04-07T06:29:42.562Z,9.67
2019-04-07T06:30:42.850Z,9.67
2019-04-07T06:31:42.542Z,9.65
2019-04-07T06:32:43.970Z,9.73
2019-04-07T06:33:42.516Z,9.70
2019-04-07T06:34:43.556Z,9.74
2019-04-07T06:35:44.972Z,9.77
2019-04-07T06:36:43.120Z,9.85
2019-04-07T06:37:42.916Z,9.78
2019-04-07T06:38:46.481Z,9.88
2019-04-07T06:39:42.450Z,9.98
2019-04-07T06:40:42.437Z,9.95
2019-04-07T06:41:42.430Z,9.99
2019-04-07T06:42:43.999Z,10.04
2019-04-07T06:43:42.402Z,10.18
2019-04-07T06:44:42.391Z,10.25
2019-04-07T06:45:42.523Z,10.31
2019-04-07T06:46:42.449Z,10.26
2019-04-07T06:47:42.361Z,10.26
2019-04-07T06:48:42.345Z,10.31
2019-04-07T06:49:44.672Z,10.35
2019-04-07T06:50:49.445Z,10.44
2019-04-07T06:51:42.451Z,10.51
2019-04-07T06:52:42.307Z,10.63
2019-04-07T06:53:43.038Z,10.73
2019-04-07T06:54:42.336Z,10.80
2019-04-07T06:55:42.774Z,10.90
2019-04-07T06:56:42.258Z,10.88
2019-04-07T06:57:42.818Z,10.99
2019-04-07T06:58:42.911Z,11.11
2019-04-07T06:59:45.659Z,11.11
2019-04-07T07:00:42.224Z,11.21
2019-04-07T07:01:42.795Z,11.26
2019-04-07T07:02:43.777Z,11.30
2019-04-07T07:03:42.178Z,11.42
2019-04-07T07:04:44.049Z,11.60
2019-04-07T07:05:45.354Z,11.70
2019-04-07T07:06:42.270Z,11.87
2019-04-07T07:07:42.569Z,11.94
2019-04-07T07:08:45.950Z,12.13
2019-04-07T07:09:42.674Z,12.30
2019-04-07T07:10:42.958Z,12.23
2019-04-07T07:11:44.107Z,12.43
2019-04-07T07:12:42.188Z,12.58
2019-04-07T07:13:44.544Z,12.58
2019-04-07T07:14:44.931Z,12.71
2019-04-07T07:15:42.733Z,12.85
2019-04-07T07:16:44.521Z,12.91
2019-04-07T07:17:42.245Z,12.85
2019-04-07T07:18:42.026Z,12.98
2019-04-07T07:19:42.281Z,12.95
2019-04-07T07:20:42.690Z,13.12
2019-04-07T07:21:42.650Z,13.16
2019-04-07T07:22:45.592Z,13.28
2019-04-07T07:23:47.647Z,13.29
2019-04-07T07:24:42.720Z,13.39
2019-04-07T07:25:42.093Z,13.50
2019-04-07T07:26:41.948Z,13.51
2019-04-07T07:27:42.996Z,13.51
2019-04-07T07:28:43.290Z,13.48
2019-04-07T07:29:45.482Z,13.48
2019-04-07T07:30:42.693Z,13.63
2019-04-07T07:31:42.595Z,13.66
2019-04-07T07:32:41.888Z,13.63
2019-04-07T07:33:43.637Z,13.55
2019-04-07T07:34:42.463Z,13.54
2019-04-07T07:35:45.526Z,13.48
2019-04-07T07:36:41.851Z,13.54
2019-04-07T07:37:41.845Z,13.41
2019-04-07T07:38:54.439Z,13.36
2019-04-07T07:39:42.646Z,13.35
2019-04-07T07:40:42.559Z,13.44
2019-04-07T07:41:41.806Z,13.38
2019-04-07T07:42:42.090Z,13.36
2019-04-07T07:43:42.439Z,13.38
2019-04-07T07:44:41.862Z,13.25
2019-04-07T07:45:44.954Z,13.24
2019-04-07T07:46:42.170Z,13.28
2019-04-07T07:47:41.749Z,13.32
2019-04-07T07:48:42.085Z,13.32
2019-04-07T07:49:42.430Z,13.39
2019-04-07T07:50:41.912Z,13.27
2019-04-07T07:51:45.041Z,13.14
2019-04-07T07:52:41.706Z,13.32
2019-04-07T07:53:41.693Z,13.44
2019-04-07T07:54:42.151Z,13.39
2019-04-07T07:55:41.676Z,13.53
2019-04-07T07:56:47.399Z,13.61
2019-04-07T07:57:41.659Z,13.69
2019-04-07T07:58:41.644Z,13.69
2019-04-07T07:59:42.101Z,13.80
2019-04-07T08:00:43.345Z,13.75
2019-04-07T08:01:44.255Z,13.96
2019-04-07T08:02:41.607Z,13.71
2019-04-07T08:03:41.599Z,13.63
2019-04-07T08:04:42.314Z,13.71
2019-04-07T08:05:41.583Z,13.65
2019-04-07T08:06:41.572Z,13.71
2019-04-07T08:07:46.828Z,13.79
2019-04-07T08:08:45.175Z,13.76
2019-04-07T08:09:42.169Z,13.90
2019-04-07T08:10:41.535Z,13.96
2019-04-07T08:11:41.545Z,13.88
2019-04-07T08:12:42.166Z,14.05
2019-04-07T08:13:44.696Z,13.79
2019-04-07T08:14:41.503Z,13.87
2019-04-07T08:15:41.645Z,13.96
2019-04-07T08:16:41.479Z,14.16
2019-04-07T08:17:42.064Z,14.27
2019-04-07T08:18:44.633Z,14.35
2019-04-07T08:19:43.928Z,14.56
2019-04-07T08:20:44.987Z,14.79
2019-04-07T08:21:44.305Z,14.67
2019-04-07T08:22:43.585Z,14.78
2019-04-07T08:23:44.575Z,14.85
2019-04-07T08:24:41.579Z,14.86
2019-04-07T08:25:41.397Z,14.61
2019-04-07T08:26:41.391Z,14.52
2019-04-07T08:27:41.971Z,14.46
2019-04-07T08:28:41.374Z,14.56
2019-04-07T08:29:41.364Z,14.57
2019-04-07T08:30:44.181Z,14.56
2019-04-07T08:31:41.343Z,14.36
2019-04-07T08:32:42.083Z,14.17
2019-04-07T08:33:42.067Z,14.06
2019-04-07T08:34:41.550Z,14.23
2019-04-07T08:35:41.316Z,14.13
2019-04-07T08:36:43.523Z,14.29
2019-04-07T08:37:41.591Z,14.39
2019-04-07T08:38:41.286Z,14.48
2019-04-07T08:39:42.060Z,14.44
2019-04-07T08:40:41.268Z,14.44
2019-04-07T08:41:42.514Z,14.54
2019-04-07T08:42:41.838Z,14.59
2019-04-07T08:43:41.963Z,14.63
2019-04-07T08:44:41.933Z,14.75
2019-04-07T08:45:41.419Z,14.57
2019-04-07T08:46:43.127Z,14.31
2019-04-07T08:47:41.207Z,14.36
2019-04-07T08:48:41.200Z,14.54
2019-04-07T08:49:41.624Z,14.63
2019-04-07T08:50:42.037Z,14.78
2019-04-07T08:51:41.700Z,14.79
2019-04-07T08:52:43.016Z,14.85
2019-04-07T08:53:44.009Z,14.91
2019-04-07T08:54:41.147Z,15.05
2019-04-07T08:55:41.709Z,14.93
2019-04-07T08:56:41.134Z,14.93
2019-04-07T08:57:41.325Z,15.03
2019-04-07T08:58:41.384Z,14.98
2019-04-07T08:59:43.028Z,14.80
2019-04-07T09:00:41.664Z,14.79
2019-04-07T09:01:41.628Z,14.74
2019-04-07T09:02:41.604Z,14.75
2019-04-07T09:03:44.481Z,14.71
2019-04-07T09:04:41.273Z,14.78
2019-04-07T09:05:41.083Z,14.79
2019-04-07T09:06:41.051Z,14.74
2019-04-07T09:07:41.198Z,14.80
2019-04-07T09:08:41.073Z,14.82
2019-04-07T09:09:46.592Z,14.66
2019-04-07T09:10:41.019Z,14.71
2019-04-07T09:11:41.612Z,14.56
2019-04-07T09:12:41.822Z,14.63
2019-04-07T09:13:41.442Z,14.75
2019-04-07T09:14:41.897Z,14.79
2019-04-07T09:15:43.612Z,14.82
2019-04-07T09:16:41.619Z,14.69
2019-04-07T09:17:45.995Z,14.82
2019-04-07T09:18:51.648Z,14.69
2019-04-07T09:19:41.643Z,14.74
2019-04-07T09:20:43.592Z,14.41
2019-04-07T09:21:42.576Z,14.57
2019-04-07T09:22:40.914Z,14.78
2019-04-07T09:23:40.907Z,14.78
2019-04-07T09:24:41.576Z,14.94
2019-04-07T09:25:41.995Z,15.04
2019-04-07T09:26:42.826Z,14.91
2019-04-07T09:27:41.096Z,15.04
2019-04-07T09:28:40.866Z,15.04
2019-04-07T09:29:41.081Z,14.90
2019-04-07T09:30:40.959Z,15.15
2019-04-07T09:31:41.076Z,15.30
2019-04-07T09:32:41.600Z,15.27
2019-04-07T09:33:40.826Z,15.48
2019-04-07T09:34:41.425Z,15.62
2019-04-07T09:35:41.305Z,15.77
2019-04-07T09:36:40.815Z,15.91
2019-04-07T09:37:41.572Z,15.89
2019-04-07T09:38:40.907Z,15.81
2019-04-07T09:39:56.270Z,15.84
2019-04-07T09:40:40.773Z,15.53
2019-04-07T09:41:42.641Z,15.60
2019-04-07T09:42:41.203Z,15.66
2019-04-07T09:43:40.747Z,15.58
2019-04-07T09:44:40.739Z,15.68
2019-04-07T09:45:41.224Z,15.67
2019-04-07T09:46:44.780Z,15.60
2019-04-07T09:47:41.391Z,15.48
2019-04-07T09:48:41.425Z,15.27
2019-04-07T09:49:41.345Z,15.25
2019-04-07T09:50:40.838Z,15.23
2019-04-07T09:51:41.532Z,15.19
2019-04-07T09:52:43.572Z,15.28
2019-04-07T09:53:41.484Z,15.22
2019-04-07T09:54:40.946Z,15.23
2019-04-07T09:55:41.127Z,15.35
2019-04-07T09:56:40.746Z,15.28
2019-04-07T09:57:41.191Z,15.33
2019-04-07T09:58:42.758Z,15.28
2019-04-07T09:59:40.623Z,15.33
2019-04-07T10:00:41.027Z,15.11
2019-04-07T10:01:41.130Z,15.13
2019-04-07T10:02:40.601Z,15.15
2019-04-07T10:03:40.602Z,15.00
2019-04-07T10:04:42.428Z,15.09
2019-04-07T10:05:40.966Z,15.12
2019-04-07T10:06:40.567Z,15.13
2019-04-07T10:07:42.814Z,15.12
2019-04-07T10:08:40.623Z,15.09
2019-04-07T10:09:41.139Z,15.05
2019-04-07T10:10:40.553Z,15.15
2019-04-07T10:11:40.526Z,15.11
2019-04-07T10:12:40.778Z,15.18
2019-04-07T10:13:40.958Z,15.37
2019-04-07T10:14:40.532Z,15.49
2019-04-07T10:15:40.492Z,15.56
2019-04-07T10:16:40.700Z,15.52
2019-04-07T10:17:40.478Z,15.49
2019-04-07T10:18:40.472Z,15.66
2019-04-07T10:19:41.254Z,15.78
2019-04-07T10:20:40.793Z,15.52
2019-04-07T10:21:40.451Z,15.55
2019-04-07T10:22:40.439Z,15.38
2019-04-07T10:23:40.456Z,15.48
2019-04-07T10:24:40.492Z,15.58
2019-04-07T10:25:40.419Z,15.56
2019-04-07T10:26:40.408Z,15.59
2019-04-07T10:27:40.400Z,15.60
2019-04-07T10:28:41.884Z,15.33
2019-04-07T10:29:40.387Z,15.07
2019-04-07T10:30:40.380Z,15.13
2019-04-07T10:31:40.923Z,15.30
2019-04-07T10:32:40.654Z,15.31
2019-04-07T10:33:40.590Z,15.12
2019-04-07T10:34:40.783Z,15.03
2019-04-07T10:35:40.930Z,14.97
2019-04-07T10:36:40.747Z,14.93
2019-04-07T10:37:40.323Z,14.82
2019-04-07T10:38:40.319Z,14.91
2019-04-07T10:39:40.308Z,15.05
2019-04-07T10:40:41.150Z,15.07
2019-04-07T10:41:40.291Z,15.03
2019-04-07T10:42:41.193Z,14.95
2019-04-07T10:43:40.507Z,14.86
2019-04-07T10:44:40.269Z,14.82
2019-04-07T10:45:40.549Z,14.97
2019-04-07T10:46:40.269Z,14.95
2019-04-07T10:47:40.245Z,14.90
2019-04-07T10:48:40.468Z,14.83
2019-04-07T10:49:40.635Z,14.79
2019-04-07T10:50:40.529Z,14.74
2019-04-07T10:51:40.810Z,14.59
2019-04-07T10:52:40.201Z,14.57
2019-04-07T10:53:40.551Z,14.66
2019-04-07T10:54:40.474Z,14.66
2019-04-07T10:55:40.636Z,14.75
2019-04-07T10:56:40.173Z,14.80
2019-04-07T10:57:40.161Z,14.74
2019-04-07T10:58:40.320Z,14.78
2019-04-07T10:59:40.402Z,14.71
2019-04-07T11:00:44.724Z,14.71
2019-04-07T11:01:40.133Z,14.74
2019-04-07T11:02:40.439Z,14.72
2019-04-07T11:03:40.532Z,14.71
2019-04-07T11:04:40.857Z,14.60
2019-04-07T11:05:41.070Z,14.64
2019-04-07T11:06:40.623Z,14.66
2019-04-07T11:07:40.421Z,14.46
2019-04-07T11:08:40.076Z,14.59
2019-04-07T11:09:40.655Z,14.53
2019-04-07T11:10:40.126Z,14.53
2019-04-07T11:11:40.046Z,14.52
2019-04-07T11:12:40.037Z,14.44
2019-04-07T11:13:40.358Z,14.38
2019-04-07T11:14:40.027Z,14.42
2019-04-07T11:15:40.013Z,14.36
2019-04-07T11:16:40.010Z,14.39
2019-04-07T11:17:40.772Z,14.49
2019-04-07T11:18:40.309Z,14.56
2019-04-07T11:19:39.978Z,14.61
2019-04-07T11:20:39.970Z,14.66
2019-04-07T11:21:40.454Z,14.71
2019-04-07T11:22:40.191Z,14.80
2019-04-07T11:23:40.381Z,14.80
2019-04-07T11:24:39.936Z,14.94
2019-04-07T11:25:39.948Z,14.93
2019-04-07T11:26:40.360Z,15.01
2019-04-07T11:27:39.911Z,15.09
2019-04-07T11:28:40.083Z,15.16
2019-04-07T11:29:39.904Z,15.25
2019-04-07T11:30:39.928Z,15.27
2019-04-07T11:31:40.553Z,15.28
2019-04-07T11:32:40.274Z,15.11
2019-04-07T11:33:39.865Z,15.13
2019-04-07T11:34:40.186Z,15.05
2019-04-07T11:35:40.166Z,14.91
2019-04-07T11:36:40.674Z,14.90
2019-04-07T11:37:39.830Z,14.95
2019-04-07T11:38:40.474Z,14.94
2019-04-07T11:39:39.814Z,14.82
2019-04-07T11:40:45.936Z,14.87
2019-04-07T11:41:40.269Z,14.87
2019-04-07T11:42:40.436Z,14.75
2019-04-07T11:43:40.788Z,14.83
2019-04-07T11:44:40.107Z,15.01
2019-04-07T11:45:39.761Z,15.05
2019-04-07T11:46:40.107Z,15.13
2019-04-07T11:47:40.520Z,15.12
2019-04-07T11:48:40.435Z,15.18
2019-04-07T11:49:42.580Z,15.44
2019-04-07T11:50:39.725Z,15.49
2019-04-07T11:51:40.618Z,15.67
2019-04-07T11:52:39.843Z,15.74
2019-04-07T11:53:39.703Z,15.68
2019-04-07T11:54:39.690Z,15.91
2019-04-07T11:55:39.682Z,15.88
2019-04-07T11:56:40.172Z,15.92
2019-04-07T11:57:43.331Z,15.96
2019-04-07T11:58:39.832Z,15.88
2019-04-07T11:59:39.652Z,15.89
2019-04-07T12:00:41.541Z,15.95
2019-04-07T12:01:39.636Z,15.98
2019-04-07T12:02:41.529Z,16.13
2019-04-07T12:03:39.859Z,16.26
2019-04-07T12:04:40.399Z,16.17
2019-04-07T12:05:39.854Z,16.26
2019-04-07T12:06:39.733Z,16.42
2019-04-07T12:07:40.242Z,16.45
2019-04-07T12:08:40.420Z,16.50
2019-04-07T12:09:39.664Z,16.29
2019-04-07T12:10:39.876Z,16.40
2019-04-07T12:11:39.759Z,16.34
2019-04-07T12:12:39.681Z,16.25
2019-04-07T12:13:42.857Z,16.25
2019-04-07T12:14:39.538Z,15.99
2019-04-07T12:15:40.046Z,16.10
2019-04-07T12:16:40.208Z,15.98
2019-04-07T12:17:42.043Z,16.13
2019-04-07T12:18:39.685Z,16.10
2019-04-07T12:19:39.812Z,16.13
2019-04-07T12:20:39.494Z,16.25
2019-04-07T12:21:39.489Z,16.26
2019-04-07T12:22:44.057Z,16.33
2019-04-07T12:23:40.237Z,16.41
2019-04-07T12:24:39.466Z,16.60
2019-04-07T12:25:40.228Z,16.52
2019-04-07T12:26:42.090Z,16.47
2019-04-07T12:27:43.025Z,16.48
2019-04-07T12:28:40.063Z,16.45
2019-04-07T12:29:39.873Z,16.30
2019-04-07T12:30:39.421Z,16.03
2019-04-07T12:31:40.369Z,15.86
2019-04-07T12:32:40.219Z,15.78
2019-04-07T12:33:40.347Z,15.71
2019-04-07T12:34:41.767Z,15.62
2019-04-07T12:35:39.400Z,15.55
2019-04-07T12:36:39.820Z,15.64
2019-04-07T12:37:42.400Z,15.62
2019-04-07T12:38:43.254Z,15.59
2019-04-07T12:39:39.358Z,15.53
2019-04-07T12:40:39.350Z,15.56
2019-04-07T12:41:40.106Z,15.52
2019-04-07T12:42:40.227Z,15.60
2019-04-07T12:43:40.343Z,15.55
2019-04-07T12:44:39.901Z,15.58
2019-04-07T12:45:39.310Z,15.40
2019-04-07T12:46:39.307Z,15.09
2019-04-07T12:47:39.800Z,15.22
2019-04-07T12:48:40.345Z,15.31
2019-04-07T12:49:44.465Z,15.34
2019-04-07T12:50:39.270Z,15.33
2019-04-07T12:51:39.731Z,15.35
2019-04-07T12:52:39.258Z,15.52
2019-04-07T12:53:40.006Z,15.44
2019-04-07T12:54:41.383Z,15.46
2019-04-07T12:55:39.235Z,15.58
2019-04-07T12:56:39.228Z,15.66
2019-04-07T12:57:39.824Z,15.67
2019-04-07T12:58:42.394Z,15.80
2019-04-07T12:59:39.235Z,15.77
2019-04-07T13:00:53.037Z,15.89
2019-04-07T13:01:41.333Z,15.95
2019-04-07T13:02:39.267Z,16.04
2019-04-07T13:03:39.173Z,16.08
2019-04-07T13:04:39.676Z,16.26
2019-04-07T13:05:39.265Z,16.37